createdAt,value
2022-10-02T00:00:27.624Z,10.45
2022-10-02T00:01:27.659Z,10.42
2022-10-02T00:02:27.596Z,10.45
2022-10-02T00:03:27.584Z,10.51
2022-10-02T00:04:27.566Z,10.52
2022-10-02T00:05:27.574Z,10.47
2022-10-02T00:06:27.578Z,10.34
2022-10-02T00:07:27.542Z,10.33
2022-10-02T00:08:27.529Z,10.27
2022-10-02T00:09:27.524Z,10.40
2022-10-02T00:10:27.522Z,10.30
2022-10-02T00:11:27.517Z,10.25
2022-10-02T00:12:27.523Z,10.27
2022-10-02T00:13:27.507Z,10.29
2022-10-02T00:14:27.482Z,10.27
2022-10-02T00:15:27.463Z,10.30
2022-10-02T00:16:27.499Z,10.26
2022-10-02T00:17:27.460Z,10.25
2022-10-02T00:18:27.468Z,10.36
2022-10-02T00:19:27.462Z,10.27
2022-10-02T00:20:27.418Z,10.32
2022-10-02T00:21:27.397Z,10.33
2022-10-02T00:22:27.406Z,10.38
2022-10-02T00:23:27.389Z,10.36
2022-10-02T00:24:27.434Z,10.33
2022-10-02T00:25:27.379Z,10.41
2022-10-02T00:26:27.353Z,10.34
2022-10-02T00:27:27.341Z,10.41
2022-10-02T00:28:27.408Z,10.40
2022-10-02T00:29:27.318Z,10.44
2022-10-02T00:30:27.331Z,10.44
2022-10-02T00:31:27.381Z,10.47
2022-10-02T00:32:27.300Z,10.53
2022-10-02T00:33:27.290Z,10.48
2022-10-02T00:34:27.281Z,10.44
2022-10-02T00:35:27.273Z,10.55
2022-10-02T00:36:27.276Z,10.52
2022-10-02T00:37:27.246Z,10.55
2022-10-02T00:38:27.237Z,10.51
2022-10-02T00:39:27.218Z,10.48
2022-10-02T00:40:27.213Z,10.53
2022-10-02T00:41:28.208Z,10.52
2022-10-02T00:42:27.188Z,10.51
2022-10-02T00:43:27.201Z,10.47
2022-10-02T00:44:27.169Z,10.44
2022-10-02T00:45:27.249Z,10.56
2022-10-02T00:46:27.173Z,10.55
2022-10-02T00:47:27.159Z,10.61
2022-10-02T00:48:27.130Z,10.60
2022-10-02T00:49:27.137Z,10.70
2022-10-02T00:50:27.118Z,10.63
2022-10-02T00:51:27.108Z,10.66
2022-10-02T00:52:27.129Z,10.66
2022-10-02T00:53:27.074Z,10.60
2022-10-02T00:54:27.077Z,10.53
2022-10-02T00:55:27.067Z,10.63
2022-10-02T00:56:27.054Z,10.66
2022-10-02T00:57:27.057Z,10.63
2022-10-02T00:58:27.040Z,10.64
2022-10-02T00:59:27.028Z,10.70
2022-10-02T01:00:27.031Z,10.63
2022-10-02T01:01:27.071Z,10.64
2022-10-02T01:02:27.035Z,10.61
2022-10-02T01:03:27.014Z,10.66
2022-10-02T01:04:26.981Z,10.59
2022-10-02T01:05:26.965Z,10.55
2022-10-02T01:06:26.951Z,10.63
2022-10-02T01:07:26.953Z,10.55
2022-10-02T01:08:26.945Z,10.45
2022-10-02T01:09:26.925Z,10.51
2022-10-02T01:10:26.926Z,10.42
2022-10-02T01:11:26.913Z,10.44
2022-10-02T01:12:26.915Z,10.44
2022-10-02T01:13:26.899Z,10.42
2022-10-02T01:14:26.874Z,10.42
2022-10-02T01:15:26.866Z,10.47
2022-10-02T01:16:26.962Z,10.47
2022-10-02T01:17:26.861Z,10.48
2022-10-02T01:18:26.839Z,10.36
2022-10-02T01:19:26.826Z,10.38
2022-10-02T01:20:26.811Z,10.41
2022-10-02T01:21:26.800Z,10.40
2022-10-02T01:22:26.811Z,10.30
2022-10-02T01:23:26.804Z,10.34
2022-10-02T01:24:26.779Z,10.33
2022-10-02T01:25:26.778Z,10.29
2022-10-02T01:26:26.763Z,10.25
2022-10-02T01:27:26.748Z,10.14
2022-10-02T01:28:26.838Z,10.25
2022-10-02T01:29:26.723Z,10.25
2022-10-02T01:30:26.720Z,10.17
2022-10-02T01:31:26.758Z,10.18
2022-10-02T01:32:26.706Z,10.20
2022-10-02T01:33:26.692Z,10.08
2022-10-02T01:34:26.700Z,10.08
2022-10-02T01:35:26.665Z,10.12
2022-10-02T01:36:26.685Z,10.09
2022-10-02T01:37:26.647Z,10.07
2022-10-02T01:38:26.633Z,9.96
2022-10-02T01:39:26.631Z,10.12
2022-10-02T01:40:26.625Z,9.96
2022-10-02T01:41:26.617Z,10.09
2022-10-02T01:42:26.586Z,10.08
2022-10-02T01:43:26.607Z,10.01
2022-10-02T01:44:26.576Z,10.02
2022-10-02T01:45:26.604Z,10.12
2022-10-02T01:46:26.572Z,10.08
2022-10-02T01:47:26.556Z,10.05
2022-10-02T01:48:26.537Z,10.02
2022-10-02T01:49:26.538Z,10.07
2022-10-02T01:50:26.519Z,10.09
2022-10-02T01:51:26.521Z,10.12
2022-10-02T01:52:26.486Z,10.04
2022-10-02T01:53:26.536Z,10.18
2022-10-02T01:54:26.481Z,10.09
2022-10-02T01:55:26.469Z,10.11
2022-10-02T01:56:26.460Z,10.14
2022-10-02T01:57:26.439Z,10.08
2022-10-02T01:58:26.443Z,10.02
2022-10-02T01:59:26.423Z,10.02
2022-10-02T02:00:26.448Z,10.04
2022-10-02T02:01:26.451Z,10.01
2022-10-02T02:02:26.463Z,10.08
2022-10-02T02:03:26.380Z,10.01
2022-10-02T02:04:26.385Z,9.97
2022-10-02T02:05:26.362Z,9.93
2022-10-02T02:06:26.352Z,9.94
2022-10-02T02:07:26.355Z,10.02
2022-10-02T02:08:26.353Z,9.87
2022-10-02T02:09:26.339Z,9.91
2022-10-02T02:10:26.321Z,9.97
2022-10-02T02:11:26.302Z,10.02
2022-10-02T02:12:26.306Z,9.90
2022-10-02T02:13:26.298Z,10.05
2022-10-02T02:14:26.292Z,10.05
2022-10-02T02:15:26.268Z,10.09
2022-10-02T02:16:58.190Z,10.11
2022-10-02T02:17:26.250Z,10.15
2022-10-02T02:18:26.248Z,10.29
2022-10-02T02:19:26.278Z,10.29
2022-10-02T02:20:26.259Z,10.29
2022-10-02T02:21:26.223Z,10.30
2022-10-02T02:22:26.221Z,10.36
2022-10-02T02:23:26.221Z,10.25
2022-10-02T02:24:26.181Z,10.34
2022-10-02T02:25:26.162Z,10.22
2022-10-02T02:26:26.157Z,10.25
2022-10-02T02:27:26.148Z,10.27
2022-10-02T02:28:26.230Z,10.25
2022-10-02T02:29:26.127Z,10.26
2022-10-02T02:30:26.133Z,10.23
2022-10-02T02:31:26.133Z,10.29
2022-10-02T02:32:26.117Z,10.26
2022-10-02T02:33:26.097Z,10.20
2022-10-02T02:34:26.101Z,10.25
2022-10-02T02:35:26.073Z,10.27
2022-10-02T02:36:26.070Z,10.26
2022-10-02T02:37:26.074Z,10.23
2022-10-02T02:38:26.042Z,10.26
2022-10-02T02:39:26.037Z,10.22
2022-10-02T02:40:26.029Z,10.27
2022-10-02T02:41:26.015Z,10.27
2022-10-02T02:42:26.463Z,10.33
2022-10-02T02:43:26.048Z,10.36
2022-10-02T02:44:25.981Z,10.26
2022-10-02T02:45:26.045Z,10.41
2022-10-02T02:46:25.961Z,10.32
2022-10-02T02:47:25.959Z,10.26
2022-10-02T02:48:25.969Z,10.30
2022-10-02T02:49:25.925Z,10.26
2022-10-02T02:50:25.937Z,10.18
2022-10-02T02:51:25.935Z,10.22
2022-10-02T02:52:25.909Z,10.20
2022-10-02T02:53:25.908Z,10.18
2022-10-02T02:54:25.907Z,10.17
2022-10-02T02:55:25.903Z,10.22
2022-10-02T02:56:25.860Z,10.26
2022-10-02T02:57:25.862Z,10.32
2022-10-02T02:58:25.869Z,10.26
2022-10-02T02:59:25.874Z,10.25
2022-10-02T03:00:25.829Z,10.26
2022-10-02T03:01:25.905Z,10.27
2022-10-02T03:02:25.889Z,10.26
2022-10-02T03:03:25.794Z,10.20
2022-10-02T03:04:25.792Z,10.42
2022-10-02T03:05:25.800Z,10.32
2022-10-02T03:06:25.774Z,10.23
2022-10-02T03:07:25.758Z,10.32
2022-10-02T03:08:25.739Z,10.26
2022-10-02T03:09:25.735Z,10.32
2022-10-02T03:10:25.756Z,10.34
2022-10-02T03:11:25.717Z,10.34
2022-10-02T03:12:25.762Z,10.26
2022-10-02T03:13:25.721Z,10.34
2022-10-02T03:14:25.701Z,10.33
2022-10-02T03:15:25.685Z,10.42
2022-10-02T03:16:25.688Z,10.45
2022-10-02T03:17:25.690Z,10.47
2022-10-02T03:18:25.663Z,10.41
2022-10-02T03:19:25.637Z,10.53
2022-10-02T03:20:25.637Z,10.52
2022-10-02T03:21:25.626Z,10.52
2022-10-02T03:22:25.618Z,10.53
2022-10-02T03:23:25.621Z,10.63
2022-10-02T03:24:25.601Z,10.61
2022-10-02T03:25:25.584Z,10.55
2022-10-02T03:26:25.587Z,10.66
2022-10-02T03:27:25.575Z,10.60
2022-10-02T03:28:50.545Z,10.61
2022-10-02T03:29:27.560Z,10.71
2022-10-02T03:30:25.537Z,10.63
2022-10-02T03:31:25.589Z,10.63
2022-10-02T03:32:25.531Z,10.66
2022-10-02T03:33:25.532Z,10.60
2022-10-02T03:34:25.495Z,10.64
2022-10-02T03:35:25.514Z,10.71
2022-10-02T03:36:25.474Z,10.60
2022-10-02T03:37:25.493Z,10.68
2022-10-02T03:38:25.462Z,10.67
2022-10-02T03:39:26.249Z,10.79
2022-10-02T03:40:25.453Z,10.70
2022-10-02T03:41:25.462Z,10.79
2022-10-02T03:42:25.419Z,10.86
2022-10-02T03:43:25.407Z,10.86
2022-10-02T03:44:25.422Z,10.85
2022-10-02T03:45:49.463Z,10.99
2022-10-02T03:46:27.412Z,10.99
2022-10-02T03:47:25.411Z,10.97
2022-10-02T03:48:25.366Z,11.03
2022-10-02T03:49:25.364Z,10.88
2022-10-02T03:50:25.340Z,10.94
2022-10-02T03:51:25.378Z,10.96
2022-10-02T03:52:25.336Z,10.96
2022-10-02T03:53:25.338Z,11.04
2022-10-02T03:54:25.303Z,11.03
2022-10-02T03:55:25.308Z,11.07
2022-10-02T03:56:25.296Z,11.06
2022-10-02T03:57:25.291Z,11.15
2022-10-02T03:58:25.281Z,11.06
2022-10-02T03:59:25.254Z,11.24
2022-10-02T04:00:25.253Z,11.15
2022-10-02T04:01:25.272Z,11.27
2022-10-02T04:02:25.218Z,11.29
2022-10-02T04:03:26.321Z,11.24
2022-10-02T04:04:25.216Z,11.21
2022-10-02T04:05:25.222Z,11.32
2022-10-02T04:06:25.191Z,11.33
2022-10-02T04:07:25.194Z,11.21
2022-10-02T04:08:25.198Z,11.21
2022-10-02T04:09:25.194Z,11.25
2022-10-02T04:10:25.165Z,11.17
2022-10-02T04:11:25.158Z,11.06
2022-10-02T04:12:25.140Z,11.07
2022-10-02T04:13:25.123Z,10.94
2022-10-02T04:14:25.131Z,11.03
2022-10-02T04:15:25.113Z,10.99
2022-10-02T04:16:25.198Z,11.00
2022-10-02T04:17:25.098Z,11.00
2022-10-02T04:18:25.077Z,10.84
2022-10-02T04:19:25.084Z,10.91
2022-10-02T04:20:25.050Z,10.88
2022-10-02T04:21:25.060Z,10.97
2022-10-02T04:22:25.032Z,10.85
2022-10-02T04:23:25.022Z,10.94
2022-10-02T04:24:25.007Z,10.91
2022-10-02T04:25:25.026Z,10.96
2022-10-02T04:26:24.996Z,11.04
2022-10-02T04:27:25.002Z,11.11
2022-10-02T04:28:25.025Z,11.07
2022-10-02T04:29:24.974Z,11.11
2022-10-02T04:30:24.983Z,11.19
2022-10-02T04:31:24.979Z,11.17
2022-10-02T04:32:24.927Z,11.14
2022-10-02T04:33:24.931Z,11.18
2022-10-02T04:34:24.916Z,11.15
2022-10-02T04:35:24.912Z,11.19
2022-10-02T04:36:24.924Z,11.35
2022-10-02T04:37:24.869Z,11.33
2022-10-02T04:38:24.864Z,11.39
2022-10-02T04:39:25.873Z,11.37
2022-10-02T04:40:24.873Z,11.35
2022-10-02T04:41:24.900Z,11.36
2022-10-02T04:42:24.820Z,11.35
2022-10-02T04:43:24.816Z,11.40
2022-10-02T04:44:24.810Z,11.43
2022-10-02T04:45:24.880Z,11.42
2022-10-02T04:46:24.807Z,11.49
2022-10-02T04:47:24.800Z,11.47
2022-10-02T04:48:24.766Z,11.52
2022-10-02T04:49:24.794Z,11.49
2022-10-02T04:50:24.756Z,11.42
2022-10-02T04:51:24.744Z,11.37
2022-10-02T04:52:24.733Z,11.28
2022-10-02T04:53:24.717Z,11.39
2022-10-02T04:54:24.750Z,11.35
2022-10-02T04:55:24.711Z,11.36
2022-10-02T04:56:24.679Z,11.28
2022-10-02T04:57:25.694Z,11.40
2022-10-02T04:58:24.682Z,11.42
2022-10-02T04:59:24.653Z,11.43
2022-10-02T05:00:24.661Z,11.39
2022-10-02T05:01:24.640Z,11.28
2022-10-02T05:02:24.697Z,11.27
2022-10-02T05:03:24.615Z,11.32
2022-10-02T05:04:24.619Z,11.33
2022-10-02T05:05:24.620Z,11.28
2022-10-02T05:06:24.594Z,11.37
2022-10-02T05:07:24.606Z,11.24
2022-10-02T05:08:43.469Z,11.27
2022-10-02T05:09:28.318Z,11.28
2022-10-02T05:10:25.594Z,11.24
2022-10-02T05:11:24.549Z,11.22
2022-10-02T05:12:24.543Z,11.22
2022-10-02T05:13:24.540Z,11.35
2022-10-02T05:14:24.509Z,11.33
2022-10-02T05:15:24.525Z,11.27
2022-10-02T05:16:24.537Z,11.35
2022-10-02T05:17:24.504Z,11.36
2022-10-02T05:18:24.487Z,11.37
2022-10-02T05:19:24.487Z,11.37
2022-10-02T05:20:24.450Z,11.44
2022-10-02T05:21:24.440Z,11.42
2022-10-02T05:22:24.420Z,11.43
2022-10-02T05:23:43.311Z,11.46
2022-10-02T05:24:24.439Z,11.47
2022-10-02T05:25:24.405Z,11.49
2022-10-02T05:26:24.393Z,11.58
2022-10-02T05:27:24.369Z,11.52
2022-10-02T05:28:24.436Z,11.55
2022-10-02T05:29:24.378Z,11.54
2022-10-02T05:30:24.380Z,11.54
2022-10-02T05:31:24.399Z,11.69
2022-10-02T05:32:24.357Z,11.75
2022-10-02T05:33:24.332Z,11.58
2022-10-02T05:34:24.308Z,11.65
2022-10-02T05:35:24.359Z,11.64
2022-10-02T05:36:43.186Z,11.69
2022-10-02T05:37:24.300Z,11.58
2022-10-02T05:38:24.281Z,11.70
2022-10-02T05:39:24.268Z,11.55
2022-10-02T05:40:24.247Z,11.65
2022-10-02T05:41:24.275Z,11.58
2022-10-02T05:42:24.311Z,11.70
2022-10-02T05:43:24.215Z,11.64
2022-10-02T05:44:24.236Z,11.75
2022-10-02T05:45:24.210Z,11.78
2022-10-02T05:46:24.292Z,11.80
2022-10-02T05:47:24.181Z,11.83
2022-10-02T05:48:24.165Z,11.98
2022-10-02T05:49:24.180Z,11.85
2022-10-02T05:50:24.154Z,11.99
2022-10-02T05:51:24.146Z,11.98
2022-10-02T05:52:24.122Z,11.85
2022-10-02T05:53:24.120Z,11.88
2022-10-02T05:54:24.112Z,11.98
2022-10-02T05:55:43.031Z,11.91
2022-10-02T05:56:24.084Z,12.02
2022-10-02T05:57:42.972Z,12.04
2022-10-02T05:58:24.082Z,11.95
2022-10-02T05:59:24.084Z,11.99
2022-10-02T06:00:24.090Z,12.01
2022-10-02T06:01:42.945Z,12.02
2022-10-02T06:02:24.115Z,12.10
2022-10-02T06:03:24.036Z,12.02
2022-10-02T06:04:24.006Z,11.95
2022-10-02T06:05:23.998Z,11.94
2022-10-02T06:06:23.986Z,12.09
2022-10-02T06:07:24.014Z,12.12
2022-10-02T06:08:23.963Z,12.16
2022-10-02T06:09:23.963Z,12.23
2022-10-02T06:10:23.969Z,12.19
2022-10-02T06:11:23.922Z,12.27
2022-10-02T06:12:23.936Z,12.35
2022-10-02T06:13:23.938Z,12.24
2022-10-02T06:14:23.901Z,12.35
2022-10-02T06:15:23.915Z,12.38
2022-10-02T06:16:23.913Z,12.38
2022-10-02T06:17:23.873Z,12.46
2022-10-02T06:18:23.883Z,12.35
2022-10-02T06:19:23.856Z,12.45
2022-10-02T06:20:23.875Z,12.49
2022-10-02T06:21:24.833Z,12.52
2022-10-02T06:22:23.827Z,12.50
2022-10-02T06:23:23.829Z,12.59
2022-10-02T06:24:23.814Z,12.53
2022-10-02T06:25:23.830Z,12.45
2022-10-02T06:26:23.776Z,12.41
2022-10-02T06:27:24.785Z,12.45
2022-10-02T06:28:23.857Z,12.47
2022-10-02T06:29:27.041Z,12.45
2022-10-02T06:30:24.774Z,12.41
2022-10-02T06:31:23.771Z,12.45
2022-10-02T06:32:23.749Z,12.45
2022-10-02T06:33:23.730Z,12.31
2022-10-02T06:34:23.710Z,12.47
2022-10-02T06:35:23.730Z,12.35
2022-10-02T06:36:23.682Z,12.35
2022-10-02T06:37:23.706Z,12.38
2022-10-02T06:38:23.670Z,12.34
2022-10-02T06:39:23.690Z,12.38
2022-10-02T06:40:23.641Z,12.35
2022-10-02T06:41:23.677Z,12.39
2022-10-02T06:42:23.632Z,12.46
2022-10-02T06:43:23.620Z,12.34
2022-10-02T06:44:23.612Z,12.49
2022-10-02T06:45:23.644Z,12.50
2022-10-02T06:46:23.605Z,12.46
2022-10-02T06:47:23.594Z,12.41
2022-10-02T06:48:23.579Z,12.52
2022-10-02T06:49:23.589Z,12.56
2022-10-02T06:50:23.577Z,12.42
2022-10-02T06:51:23.547Z,12.53
2022-10-02T06:52:23.533Z,12.47
2022-10-02T06:53:23.535Z,12.64
2022-10-02T06:54:23.507Z,12.70
2022-10-02T06:55:23.520Z,12.71
2022-10-02T06:56:23.502Z,12.79
2022-10-02T06:57:23.488Z,12.79
2022-10-02T06:58:23.460Z,12.77
2022-10-02T06:59:23.466Z,12.74
2022-10-02T07:00:23.499Z,12.77
2022-10-02T07:01:23.529Z,12.90
2022-10-02T07:02:23.515Z,12.97
2022-10-02T07:03:23.419Z,12.87
2022-10-02T07:04:23.396Z,12.96
2022-10-02T07:05:23.407Z,13.00
2022-10-02T07:06:23.410Z,13.01
2022-10-02T07:07:23.400Z,12.95
2022-10-02T07:08:23.382Z,13.01
2022-10-02T07:09:23.362Z,12.97
2022-10-02T07:10:23.392Z,13.07
2022-10-02T07:11:23.344Z,13.08
2022-10-02T07:12:23.340Z,13.17
2022-10-02T07:13:23.326Z,13.05
2022-10-02T07:14:23.342Z,13.03
2022-10-02T07:15:23.313Z,13.10
2022-10-02T07:16:23.367Z,13.12
2022-10-02T07:17:23.315Z,13.23
2022-10-02T07:18:23.269Z,13.19
2022-10-02T07:19:23.262Z,13.29
2022-10-02T07:20:23.316Z,13.30
2022-10-02T07:21:23.252Z,13.28
2022-10-02T07:22:43.564Z,13.30
2022-10-02T07:23:25.244Z,13.42
2022-10-02T07:24:23.217Z,13.42
2022-10-02T07:25:23.218Z,13.44
2022-10-02T07:26:23.196Z,13.42
2022-10-02T07:27:23.185Z,13.52
2022-10-02T07:28:23.231Z,13.48
2022-10-02T07:29:23.161Z,13.41
2022-10-02T07:30:23.169Z,13.33
2022-10-02T07:31:23.227Z,13.33
2022-10-02T07:32:23.151Z,13.30
2022-10-02T07:33:26.577Z,13.30
2022-10-02T07:34:24.136Z,13.20
2022-10-02T07:35:23.109Z,13.22
2022-10-02T07:36:23.097Z,13.25
2022-10-02T07:37:23.100Z,13.15
2022-10-02T07:38:23.068Z,13.28
2022-10-02T07:39:23.065Z,13.17
2022-10-02T07:40:23.059Z,13.25
2022-10-02T07:41:23.048Z,13.23
2022-10-02T07:42:23.081Z,13.15
2022-10-02T07:43:23.025Z,13.12
2022-10-02T07:44:23.050Z,13.22
2022-10-02T07:45:23.042Z,13.22
2022-10-02T07:46:22.980Z,13.33
2022-10-02T07:47:22.982Z,13.41
2022-10-02T07:48:22.984Z,13.39
2022-10-02T07:49:22.994Z,13.28
2022-10-02T07:50:22.953Z,13.32
2022-10-02T07:51:22.941Z,13.39
2022-10-02T07:52:22.934Z,13.46
2022-10-02T07:53:22.920Z,13.55
2022-10-02T07:54:22.921Z,13.59
2022-10-02T07:55:22.940Z,13.52
2022-10-02T07:56:22.975Z,13.59
2022-10-02T07:57:22.890Z,13.51
2022-10-02T07:58:22.867Z,13.57
2022-10-02T07:59:22.864Z,13.52
2022-10-02T08:00:22.868Z,13.59
2022-10-02T08:01:22.853Z,13.57
2022-10-02T08:02:22.908Z,13.62
2022-10-02T08:03:22.953Z,13.70
2022-10-02T08:04:22.808Z,13.73
2022-10-02T08:05:22.833Z,13.75
2022-10-02T08:06:22.797Z,13.84
2022-10-02T08:07:22.786Z,13.84
2022-10-02T08:08:22.811Z,14.10
2022-10-02T08:09:22.761Z,14.09
2022-10-02T08:10:22.767Z,14.36
2022-10-02T08:11:22.775Z,14.54
2022-10-02T08:12:22.775Z,14.52
2022-10-02T08:13:22.835Z,14.70
2022-10-02T08:14:22.735Z,14.73
2022-10-02T08:15:22.707Z,14.83
2022-10-02T08:16:29.685Z,14.78
2022-10-02T08:17:22.683Z,14.81
2022-10-02T08:18:34.297Z,14.89
2022-10-02T08:19:24.678Z,14.84
2022-10-02T08:20:25.367Z,14.94
2022-10-02T08:21:22.669Z,14.84
2022-10-02T08:22:22.633Z,14.94
2022-10-02T08:23:22.624Z,15.09
2022-10-02T08:24:22.629Z,15.35
2022-10-02T08:25:22.604Z,15.65
2022-10-02T08:26:23.592Z,15.76
2022-10-02T08:27:22.578Z,15.83
2022-10-02T08:28:22.615Z,15.87
2022-10-02T08:29:22.576Z,15.96
2022-10-02T08:30:22.559Z,15.93
2022-10-02T08:31:22.595Z,15.89
2022-10-02T08:32:22.546Z,15.90
2022-10-02T08:33:22.537Z,15.86
2022-10-02T08:34:22.513Z,15.60
2022-10-02T08:35:22.500Z,15.59
2022-10-02T08:36:22.484Z,15.54
2022-10-02T08:37:22.476Z,15.46
2022-10-02T08:38:22.480Z,15.54
2022-10-02T08:39:22.488Z,15.56
2022-10-02T08:40:22.456Z,15.44
2022-10-02T08:41:22.459Z,15.35
2022-10-02T08:42:22.471Z,15.34
2022-10-02T08:43:22.430Z,15.16
2022-10-02T08:44:22.415Z,15.09
2022-10-02T08:45:22.424Z,15.02
2022-10-02T08:46:22.404Z,15.02
2022-10-02T08:47:22.412Z,15.07
2022-10-02T08:48:22.385Z,15.01
2022-10-02T08:49:22.370Z,14.86
2022-10-02T08:50:22.369Z,14.91
2022-10-02T08:51:22.352Z,14.98
2022-10-02T08:52:22.337Z,14.94
2022-10-02T08:53:22.347Z,14.94
2022-10-02T08:54:22.317Z,14.91
2022-10-02T08:55:22.306Z,14.99
2022-10-02T08:56:22.308Z,15.06
2022-10-02T08:57:22.284Z,15.17
2022-10-02T08:58:22.278Z,15.01
2022-10-02T08:59:22.283Z,15.07
2022-10-02T09:00:22.262Z,15.07
2022-10-02T09:01:22.304Z,15.14
2022-10-02T09:02:22.310Z,15.07
2022-10-02T09:03:22.263Z,15.27
2022-10-02T09:04:22.229Z,15.34
2022-10-02T09:05:22.212Z,15.28
2022-10-02T09:06:22.201Z,15.32
2022-10-02T09:07:27.366Z,15.35
2022-10-02T09:08:24.195Z,15.28
2022-10-02T09:09:22.170Z,15.34
2022-10-02T09:10:22.161Z,15.31
2022-10-02T09:11:22.154Z,15.31
2022-10-02T09:12:22.147Z,15.31
2022-10-02T09:13:22.153Z,15.20
2022-10-02T09:14:22.138Z,15.34
2022-10-02T09:15:22.108Z,15.36
2022-10-02T09:16:22.162Z,15.47
2022-10-02T09:17:22.098Z,15.46
2022-10-02T09:18:22.090Z,15.34
2022-10-02T09:19:22.095Z,15.38
2022-10-02T09:20:22.060Z,15.51
2022-10-02T09:21:22.056Z,15.53
2022-10-02T09:22:22.072Z,15.60
2022-10-02T09:23:22.029Z,15.56
2022-10-02T09:24:22.025Z,15.62
2022-10-02T09:25:22.013Z,15.57
2022-10-02T09:26:21.992Z,15.71
2022-10-02T09:27:21.978Z,15.67
2022-10-02T09:28:22.051Z,15.57
2022-10-02T09:29:21.982Z,15.74
2022-10-02T09:30:21.952Z,15.72
2022-10-02T09:31:23.004Z,15.60
2022-10-02T09:32:22.964Z,15.65
2022-10-02T09:33:21.924Z,15.68
2022-10-02T09:34:21.916Z,15.67
2022-10-02T09:35:21.910Z,15.54
2022-10-02T09:36:21.895Z,15.51
2022-10-02T09:37:21.902Z,15.47
2022-10-02T09:38:21.878Z,15.50
2022-10-02T09:39:21.859Z,15.41
2022-10-02T09:40:21.855Z,15.47
2022-10-02T09:41:21.851Z,15.57
2022-10-02T09:42:21.857Z,15.69
2022-10-02T09:43:21.823Z,15.69
2022-10-02T09:44:21.825Z,15.69
2022-10-02T09:45:21.803Z,15.57
2022-10-02T09:46:21.783Z,15.44
2022-10-02T09:47:21.801Z,15.46
2022-10-02T09:48:21.777Z,15.41
2022-10-02T09:49:21.759Z,15.49
2022-10-02T09:50:21.759Z,15.35
2022-10-02T09:51:21.955Z,15.39
2022-10-02T09:52:21.738Z,15.43
2022-10-02T09:53:21.724Z,15.39
2022-10-02T09:54:21.722Z,15.41
2022-10-02T09:55:21.708Z,15.41
2022-10-02T09:56:21.713Z,15.43
2022-10-02T09:57:21.683Z,15.43
2022-10-02T09:58:21.678Z,15.36
2022-10-02T09:59:21.661Z,15.51
2022-10-02T10:00:21.649Z,15.69
2022-10-02T10:01:21.673Z,15.71
2022-10-02T10:02:25.563Z,15.83
2022-10-02T10:03:22.650Z,15.97
2022-10-02T10:04:21.626Z,15.90
2022-10-02T10:05:21.599Z,15.96
2022-10-02T10:06:21.607Z,15.94
2022-10-02T10:07:21.597Z,15.87
2022-10-02T10:08:21.573Z,15.71
2022-10-02T10:09:21.583Z,15.64
2022-10-02T10:10:21.564Z,15.62
2022-10-02T10:11:21.553Z,15.62
2022-10-02T10:12:21.533Z,15.62
2022-10-02T10:13:21.519Z,15.56
2022-10-02T10:14:21.512Z,15.59
2022-10-02T10:15:21.527Z,15.67
2022-10-02T10:16:21.588Z,15.59
2022-10-02T10:17:21.493Z,15.65
2022-10-02T10:18:21.474Z,15.65
2022-10-02T10:19:21.472Z,15.78
2022-10-02T10:20:21.462Z,15.87
2022-10-02T10:21:21.473Z,15.90
2022-10-02T10:22:21.445Z,15.89
2022-10-02T10:23:21.427Z,15.94
2022-10-02T10:24:21.427Z,16.00
2022-10-02T10:25:21.406Z,16.01
2022-10-02T10:26:21.419Z,16.00
2022-10-02T10:27:21.382Z,15.97
2022-10-02T10:28:21.429Z,15.89
2022-10-02T10:29:21.380Z,15.87
2022-10-02T10:30:21.365Z,15.82
2022-10-02T10:31:21.390Z,15.76
2022-10-02T10:32:21.350Z,15.84
2022-10-02T10:33:21.332Z,15.80
2022-10-02T10:34:21.333Z,15.94
2022-10-02T10:35:21.308Z,15.90
2022-10-02T10:36:21.293Z,15.93
2022-10-02T10:37:21.293Z,15.86
2022-10-02T10:38:21.287Z,15.93
2022-10-02T10:39:21.265Z,16.00
2022-10-02T10:40:21.252Z,15.97
2022-10-02T10:41:21.239Z,16.07
2022-10-02T10:42:21.230Z,16.08
2022-10-02T10:43:21.234Z,16.07
2022-10-02T10:44:21.205Z,16.02
2022-10-02T10:45:21.232Z,16.05
2022-10-02T10:46:21.262Z,16.07
2022-10-02T10:47:21.181Z,16.28
2022-10-02T10:48:21.178Z,16.31
2022-10-02T10:49:21.198Z,16.35
2022-10-02T10:50:21.160Z,16.38
2022-10-02T10:51:21.145Z,16.49
2022-10-02T10:52:21.127Z,16.70
2022-10-02T10:53:21.127Z,16.88
2022-10-02T10:54:21.116Z,17.01
2022-10-02T10:55:21.112Z,17.16
2022-10-02T10:56:21.081Z,17.00
2022-10-02T10:57:21.074Z,16.98
2022-10-02T10:58:21.060Z,17.01
2022-10-02T10:59:25.137Z,16.94
2022-10-02T11:00:22.047Z,16.97
2022-10-02T11:01:21.171Z,16.82
2022-10-02T11:02:21.116Z,16.91
2022-10-02T11:03:21.029Z,16.83
2022-10-02T11:04:21.057Z,16.85
2022-10-02T11:05:20.989Z,16.86
2022-10-02T11:06:20.981Z,16.82
2022-10-02T11:07:20.972Z,16.88
2022-10-02T11:08:20.955Z,16.85
2022-10-02T11:09:21.962Z,16.91
2022-10-02T11:10:20.975Z,16.96
2022-10-02T11:11:20.937Z,17.07
2022-10-02T11:12:20.923Z,17.16
2022-10-02T11:13:20.914Z,17.23
2022-10-02T11:14:20.909Z,17.25
2022-10-02T11:15:20.921Z,17.25
2022-10-02T11:16:20.956Z,17.31
2022-10-02T11:17:20.883Z,17.19
2022-10-02T11:18:20.865Z,17.07
2022-10-02T11:19:21.758Z,17.06
2022-10-02T11:20:21.853Z,16.86
2022-10-02T11:21:20.872Z,16.82
2022-10-02T11:22:20.830Z,16.75
2022-10-02T11:23:20.825Z,16.79
2022-10-02T11:24:20.807Z,16.89
2022-10-02T11:25:20.792Z,16.86
2022-10-02T11:26:20.808Z,16.79
2022-10-02T11:27:20.818Z,16.78
2022-10-02T11:28:20.845Z,16.52
2022-10-02T11:29:20.754Z,16.48
2022-10-02T11:30:20.773Z,16.60
2022-10-02T11:31:20.751Z,16.48
2022-10-02T11:32:20.723Z,16.56
2022-10-02T11:33:20.740Z,16.75
2022-10-02T11:34:20.695Z,16.66
2022-10-02T11:35:20.682Z,16.70
2022-10-02T11:36:20.678Z,16.85
2022-10-02T11:37:20.663Z,16.88
2022-10-02T11:38:20.657Z,16.86
2022-10-02T11:39:20.655Z,16.86
2022-10-02T11:40:20.659Z,16.85
2022-10-02T11:41:20.638Z,16.78
2022-10-02T11:42:20.615Z,16.88
2022-10-02T11:43:20.604Z,16.89
2022-10-02T11:44:20.617Z,16.96
2022-10-02T11:45:20.609Z,17.06
2022-10-02T11:46:20.576Z,17.26
2022-10-02T11:47:20.579Z,17.36
2022-10-02T11:48:20.559Z,17.43
2022-10-02T11:49:20.554Z,17.46
2022-10-02T11:50:20.554Z,17.46
2022-10-02T11:51:20.550Z,17.54
2022-10-02T11:52:20.528Z,17.41
2022-10-02T11:53:20.512Z,17.62
2022-10-02T11:54:20.497Z,17.59
2022-10-02T11:55:20.486Z,17.51
2022-10-02T11:56:20.475Z,17.40
2022-10-02T11:57:20.504Z,17.54
2022-10-02T11:58:20.456Z,17.41
2022-10-02T11:59:20.443Z,17.49
2022-10-02T12:00:20.437Z,17.51
2022-10-02T12:01:20.454Z,17.62
2022-10-02T12:02:20.543Z,17.62
2022-10-02T12:03:20.484Z,17.66
2022-10-02T12:04:20.392Z,17.72
2022-10-02T12:05:20.396Z,17.59
2022-10-02T12:06:20.420Z,17.49
2022-10-02T12:07:20.367Z,17.68
2022-10-02T12:08:20.359Z,17.74
2022-10-02T12:09:20.338Z,17.89
2022-10-02T12:10:20.336Z,17.92
2022-10-02T12:11:20.353Z,17.71
2022-10-02T12:12:23.387Z,17.63
2022-10-02T12:13:21.311Z,17.49
2022-10-02T12:14:20.300Z,17.58
2022-10-02T12:15:20.290Z,17.66
2022-10-02T12:16:20.362Z,17.74
2022-10-02T12:17:20.279Z,17.90
2022-10-02T12:18:21.980Z,17.55
2022-10-02T12:19:21.241Z,17.56
2022-10-02T12:20:20.235Z,17.68
2022-10-02T12:21:20.232Z,17.72
2022-10-02T12:22:20.227Z,17.90
2022-10-02T12:23:20.201Z,17.78
2022-10-02T12:24:20.194Z,17.71
2022-10-02T12:25:20.181Z,17.66
2022-10-02T12:26:20.185Z,17.59
2022-10-02T12:27:20.163Z,17.48
2022-10-02T12:28:20.211Z,17.23
2022-10-02T12:29:20.138Z,17.25
2022-10-02T12:30:20.132Z,17.23
2022-10-02T12:31:20.187Z,17.16
2022-10-02T12:32:20.118Z,17.15
2022-10-02T12:33:20.110Z,17.11
2022-10-02T12:34:20.091Z,17.03
2022-10-02T12:35:20.117Z,17.14
2022-10-02T12:36:20.085Z,17.03
2022-10-02T12:37:20.077Z,17.11
2022-10-02T12:38:20.070Z,17.25
2022-10-02T12:39:22.119Z,17.48
2022-10-02T12:40:21.051Z,17.48
2022-10-02T12:41:20.035Z,17.68
2022-10-02T12:42:20.031Z,17.97
2022-10-02T12:43:20.011Z,17.99
2022-10-02T12:44:20.015Z,17.97
2022-10-02T12:45:19.994Z,18.12
2022-10-02T12:46:19.991Z,18.25
2022-10-02T12:47:19.974Z,18.21
2022-10-02T12:48:19.964Z,18.35
2022-10-02T12:49:19.952Z,18.39
2022-10-02T12:50:19.975Z,18.44
2022-10-02T12:51:19.936Z,18.60
2022-10-02T12:52:19.949Z,18.54